createdAt,value
2023-05-13T00:00:59.693Z,22.98
2023-05-13T00:03:27.565Z,20.83
2023-05-13T00:05:55.535Z,30.30
2023-05-13T00:08:24.671Z,33.80
2023-05-13T00:10:52.519Z,21.58
2023-05-13T00:13:20.290Z,19.45
2023-05-13T00:15:48.342Z,19.25
2023-05-13T00:18:16.153Z,21.15
2023-05-13T00:20:44.047Z,17.90
2023-05-13T00:23:12.409Z,20.90
2023-05-13T00:25:44.161Z,22.60
2023-05-13T00:28:14.013Z,20.23
2023-05-13T00:30:43.841Z,19.90
2023-05-13T00:33:11.726Z,21.35
2023-05-13T00:35:39.529Z,22.05
2023-05-13T00:38:07.335Z,20.73
2023-05-13T00:40:38.119Z,30.83
2023-05-13T00:43:07.518Z,29.42
2023-05-13T00:45:38.078Z,20.15
2023-05-13T00:48:08.279Z,18.50
2023-05-13T00:50:38.880Z,33.58
2023-05-13T00:53:06.823Z,27.25
2023-05-13T00:55:34.669Z,19.20
2023-05-13T00:58:02.541Z,26.38
2023-05-13T01:00:36.616Z,21.38
2023-05-13T01:03:13.894Z,30.48
2023-05-13T01:05:52.035Z,20.77
2023-05-13T01:08:27.878Z,22.83
2023-05-13T01:11:00.346Z,20.00
2023-05-13T01:16:05.051Z,26.92
2023-05-13T01:18:37.307Z,19.30
2023-05-13T01:21:07.327Z,27.92
2023-05-13T01:23:36.836Z,19.95
2023-05-13T01:26:04.736Z,28.33
2023-05-13T01:28:32.662Z,30.88
2023-05-13T01:31:00.546Z,19.55
2023-05-13T01:33:28.574Z,19.23
2023-05-13T01:35:56.930Z,18.83
2023-05-13T01:38:25.849Z,19.58
2023-05-13T01:40:56.042Z,28.10
2023-05-13T01:43:23.842Z,20.77
2023-05-13T01:45:51.756Z,37.30
2023-05-13T01:48:19.728Z,26.85
2023-05-13T01:50:47.645Z,28.60
2023-05-13T01:53:15.507Z,27.85
2023-05-13T01:55:43.261Z,29.98
2023-05-13T01:58:12.395Z,20.02
2023-05-13T02:00:40.126Z,21.92
2023-05-13T02:03:07.953Z,19.25
2023-05-13T02:05:35.896Z,20.70
2023-05-13T02:08:03.731Z,18.30
2023-05-13T02:10:31.531Z,24.77
2023-05-13T02:12:59.287Z,20.02
2023-05-13T02:15:28.483Z,28.80
2023-05-13T02:17:56.209Z,19.83
2023-05-13T02:20:24.142Z,20.40
2023-05-13T02:22:51.978Z,22.02
2023-05-13T02:25:19.942Z,20.92
2023-05-13T02:27:47.732Z,20.45
2023-05-13T02:30:15.967Z,24.42
2023-05-13T02:32:45.140Z,30.85
2023-05-13T02:35:12.923Z,21.92
2023-05-13T02:37:40.683Z,21.02
2023-05-13T02:40:09.695Z,37.53
2023-05-13T02:42:37.729Z,36.35
2023-05-13T02:45:05.885Z,24.25
2023-05-13T02:47:34.014Z,25.98
2023-05-13T02:50:05.812Z,27.75
2023-05-13T02:52:35.743Z,33.10
2023-05-13T02:55:03.695Z,31.05
2023-05-13T02:57:31.454Z,34.58
2023-05-13T02:59:59.219Z,33.15
2023-05-13T03:02:28.154Z,29.88
2023-05-13T03:04:56.551Z,20.63
2023-05-13T03:07:26.191Z,17.55
2023-05-13T03:09:54.105Z,20.88
2023-05-13T03:12:21.983Z,26.33
2023-05-13T03:14:49.748Z,32.55
2023-05-13T03:17:17.699Z,24.85
2023-05-13T03:19:45.467Z,26.80
2023-05-13T03:22:13.260Z,32.05
2023-05-13T03:24:43.178Z,22.58
2023-05-13T03:27:11.093Z,25.02
2023-05-13T03:29:38.795Z,33.08
2023-05-13T03:32:07.472Z,20.45
2023-05-13T03:34:36.439Z,19.45
2023-05-13T03:37:05.228Z,18.40
2023-05-13T03:39:33.017Z,21.10
2023-05-13T03:42:02.813Z,20.55
2023-05-13T03:44:30.634Z,19.55
2023-05-13T03:46:58.525Z,20.08
2023-05-13T03:49:26.286Z,18.98
2023-05-13T03:51:54.052Z,28.75
2023-05-13T03:54:21.899Z,27.75
2023-05-13T03:56:49.688Z,22.35
2023-05-13T03:59:18.771Z,30.00
2023-05-13T04:01:46.583Z,29.45
2023-05-13T04:04:14.362Z,35.80
2023-05-13T04:06:42.202Z,23.10
2023-05-13T04:09:09.938Z,33.28
2023-05-13T04:11:38.037Z,34.53
2023-05-13T04:14:05.793Z,23.50
2023-05-13T04:16:35.041Z,21.88
2023-05-13T04:19:02.866Z,29.05
2023-05-13T04:21:31.382Z,28.23
2023-05-13T04:23:59.130Z,19.83
2023-05-13T04:26:26.950Z,30.67
2023-05-13T04:28:54.749Z,19.95
2023-05-13T04:31:22.510Z,26.33
2023-05-13T04:33:51.620Z,35.20
2023-05-13T04:36:19.412Z,30.75
2023-05-13T04:38:47.140Z,22.40
2023-05-13T04:41:14.898Z,32.47
2023-05-13T04:43:42.708Z,31.33
2023-05-13T04:46:10.576Z,27.08
2023-05-13T04:48:38.391Z,20.00
2023-05-13T04:51:07.800Z,19.70
2023-05-13T04:53:36.822Z,24.08
2023-05-13T04:56:04.944Z,21.20
2023-05-13T04:58:32.693Z,20.08
2023-05-13T05:01:00.728Z,25.40
2023-05-13T05:03:28.463Z,20.58
2023-05-13T05:05:56.225Z,19.15
2023-05-13T05:08:25.537Z,22.50
2023-05-13T05:10:53.659Z,24.00
2023-05-13T05:13:21.604Z,17.25
2023-05-13T05:15:49.460Z,15.18
2023-05-13T05:18:17.398Z,13.77
2023-05-13T05:20:45.224Z,13.95
2023-05-13T05:23:13.086Z,14.95
2023-05-13T05:25:42.318Z,12.82
2023-05-13T05:28:10.095Z,14.00
2023-05-13T05:30:40.373Z,15.98
2023-05-13T05:33:08.948Z,16.17
2023-05-13T05:35:38.348Z,15.50
2023-05-13T05:38:06.452Z,22.25
2023-05-13T05:40:36.865Z,17.35
2023-05-13T05:43:06.072Z,16.02
2023-05-13T05:45:36.977Z,16.70
2023-05-13T05:48:06.373Z,19.35
2023-05-13T05:50:34.993Z,15.68
2023-05-13T05:53:03.150Z,20.52
2023-05-13T05:55:31.914Z,15.88
2023-05-13T05:58:03.976Z,15.90
2023-05-13T06:00:33.604Z,15.55
2023-05-13T06:03:01.436Z,15.90
2023-05-13T06:05:29.328Z,14.32
2023-05-13T06:07:57.102Z,15.77
2023-05-13T06:10:25.151Z,17.25
2023-05-13T06:12:52.966Z,15.18
2023-05-13T06:15:20.772Z,14.25
2023-05-13T06:17:50.057Z,12.90
2023-05-13T06:20:18.219Z,14.73
2023-05-13T06:22:46.106Z,13.98
2023-05-13T06:25:13.949Z,13.80
2023-05-13T06:27:41.953Z,15.45
2023-05-13T06:30:10.816Z,15.88
2023-05-13T06:32:42.719Z,16.40
2023-05-13T06:35:16.985Z,13.43
2023-05-13T06:37:44.889Z,15.52
2023-05-13T06:40:13.595Z,13.10
2023-05-13T06:42:41.475Z,13.82
2023-05-13T06:45:10.640Z,15.43
2023-05-13T06:47:38.442Z,14.27
2023-05-13T06:50:06.869Z,14.68
2023-05-13T06:52:36.470Z,14.07
2023-05-13T06:55:04.617Z,14.80
2023-05-13T06:57:41.939Z,13.65
2023-05-13T07:00:11.971Z,13.07
2023-05-13T07:02:39.819Z,13.48
2023-05-13T07:05:10.841Z,14.30
2023-05-13T07:07:40.645Z,13.68
2023-05-13T07:10:08.854Z,13.05
2023-05-13T07:12:36.917Z,14.20
2023-05-13T07:15:05.466Z,12.63
2023-05-13T07:17:33.779Z,12.85
2023-05-13T07:20:01.954Z,15.82
2023-05-13T07:22:29.827Z,13.80
2023-05-13T07:24:59.399Z,13.57
2023-05-13T07:27:27.211Z,12.07
2023-05-13T07:29:55.497Z,13.93
2023-05-13T07:32:23.284Z,12.48
2023-05-13T07:34:51.394Z,12.85
2023-05-13T07:37:19.256Z,12.23
2023-05-13T07:39:47.182Z,12.20
2023-05-13T07:42:16.926Z,12.35
2023-05-13T07:44:46.527Z,11.85
2023-05-13T07:47:15.146Z,13.50
2023-05-13T07:49:42.972Z,11.73
2023-05-13T07:52:10.720Z,11.90
2023-05-13T07:54:38.530Z,11.60
2023-05-13T07:57:06.456Z,11.18
2023-05-13T07:59:35.948Z,11.95
2023-05-13T08:02:03.783Z,11.18
2023-05-13T08:04:31.810Z,11.20
2023-05-13T08:06:59.919Z,11.20
2023-05-13T08:09:28.031Z,11.38
2023-05-13T08:11:56.073Z,12.57
2023-05-13T08:14:23.984Z,11.80
2023-05-13T08:16:53.198Z,11.63
2023-05-13T08:19:21.328Z,10.75
2023-05-13T08:21:49.165Z,12.57
2023-05-13T08:24:17.029Z,12.95
2023-05-13T08:26:44.776Z,11.27
2023-05-13T08:29:15.479Z,10.30
2023-05-13T08:31:43.415Z,10.02
2023-05-13T08:34:12.677Z,9.98
2023-05-13T08:36:40.620Z,9.30
2023-05-13T08:39:08.681Z,11.55
2023-05-13T08:41:36.921Z,9.20
2023-05-13T08:44:06.793Z,9.32
2023-05-13T08:46:35.194Z,10.48
2023-05-13T08:49:03.696Z,9.77
2023-05-13T08:51:33.648Z,8.25
2023-05-13T08:54:03.017Z,9.90
2023-05-13T08:56:30.877Z,7.63
2023-05-13T08:58:58.842Z,10.75
2023-05-13T09:01:29.500Z,7.93
2023-05-13T09:04:00.218Z,6.78
2023-05-13T09:06:28.650Z,7.13
2023-05-13T09:08:58.574Z,7.60
2023-05-13T09:11:26.830Z,7.25
2023-05-13T09:13:59.749Z,9.77
2023-05-13T09:16:30.168Z,8.32
2023-05-13T09:19:00.045Z,6.50
2023-05-13T09:21:31.758Z,7.53
2023-05-13T09:24:11.814Z,5.60
2023-05-13T09:26:40.280Z,7.85
2023-05-13T09:29:32.350Z,5.25
2023-05-13T09:32:03.012Z,7.68
2023-05-13T09:34:32.053Z,6.25
2023-05-13T09:37:01.407Z,7.80
2023-05-13T09:39:32.977Z,5.88
2023-05-13T09:42:04.314Z,6.40
2023-05-13T09:44:34.423Z,6.28
2023-05-13T09:47:03.435Z,8.18
2023-05-13T09:49:32.798Z,5.43
2023-05-13T09:52:00.624Z,6.53
2023-05-13T09:54:37.522Z,5.50
2023-05-13T09:57:06.543Z,6.80
2023-05-13T09:59:34.342Z,5.93
2023-05-13T10:02:05.294Z,7.93
2023-05-13T10:04:33.272Z,6.65
2023-05-13T10:07:03.994Z,5.78
2023-05-13T10:09:38.223Z,4.53
2023-05-13T10:12:12.051Z,5.15
2023-05-13T10:14:43.776Z,7.17
2023-05-13T10:17:12.542Z,4.85
2023-05-13T10:19:40.684Z,5.72
2023-05-13T10:22:09.175Z,6.15
2023-05-13T10:24:39.821Z,5.95
2023-05-13T10:27:08.837Z,6.82
2023-05-13T10:29:39.150Z,5.00
2023-05-13T10:32:08.869Z,8.45
2023-05-13T10:34:39.829Z,7.43
2023-05-13T10:37:26.824Z,6.43
2023-05-13T10:40:27.103Z,5.53
2023-05-13T10:43:02.649Z,7.18
2023-05-13T10:45:34.496Z,7.57
2023-05-13T10:48:07.250Z,5.53
2023-05-13T10:50:39.148Z,5.97
2023-05-13T10:53:13.045Z,4.95
2023-05-13T10:55:46.585Z,4.97
2023-05-13T10:58:15.391Z,6.57
2023-05-13T11:00:44.845Z,5.05
2023-05-13T11:03:29.467Z,5.35
2023-05-13T11:06:15.484Z,5.97
2023-05-13T11:08:44.806Z,6.22
2023-05-13T11:11:33.027Z,5.85
2023-05-13T11:14:08.627Z,5.20
2023-05-13T11:16:37.704Z,7.47
2023-05-13T11:19:10.667Z,5.70
2023-05-13T11:21:41.272Z,5.78
2023-05-13T11:24:09.555Z,4.97
2023-05-13T11:26:49.833Z,9.68
2023-05-13T11:29:29.149Z,5.95
2023-05-13T11:32:00.348Z,4.82
2023-05-13T11:34:30.426Z,5.30
2023-05-13T11:37:09.008Z,4.68
2023-05-13T11:39:39.610Z,6.90
2023-05-13T11:42:10.516Z,5.05
2023-05-13T11:44:46.370Z,6.00
2023-05-13T11:47:14.289Z,5.95
2023-05-13T11:49:44.241Z,5.95
2023-05-13T11:52:14.211Z,6.43
2023-05-13T11:54:47.552Z,5.85
2023-05-13T11:57:20.276Z,8.55
2023-05-13T11:59:56.448Z,4.97
2023-05-13T12:02:26.045Z,6.57
2023-05-13T12:04:54.095Z,4.70
2023-05-13T12:07:23.833Z,4.03
2023-05-13T12:09:52.919Z,7.18
2023-05-13T12:12:22.287Z,4.65
2023-05-13T12:14:51.310Z,4.60
2023-05-13T12:17:20.289Z,5.40
2023-05-13T12:20:12.032Z,6.45
2023-05-13T12:22:52.467Z,5.70
2023-05-13T12:25:41.422Z,4.85
2023-05-13T12:28:16.785Z,5.38
2023-05-13T12:30:50.618Z,6.95
2023-05-13T12:33:20.152Z,5.47
2023-05-13T12:35:49.595Z,5.00
2023-05-13T12:38:18.761Z,5.70
2023-05-13T12:40:47.124Z,6.75
2023-05-13T12:43:17.533Z,5.25
2023-05-13T12:45:47.939Z,5.97
2023-05-13T12:48:17.610Z,5.43
2023-05-13T12:50:45.545Z,5.15
2023-05-13T12:53:13.392Z,5.80
2023-05-13T12:55:41.273Z,5.00
2023-05-13T12:58:11.994Z,7.38
2023-05-13T13:00:41.442Z,5.22
2023-05-13T13:03:09.545Z,4.70
2023-05-13T13:05:40.606Z,6.72
2023-05-13T13:08:08.388Z,6.13
2023-05-13T13:10:39.087Z,5.68
2023-05-13T13:13:07.356Z,7.93
2023-05-13T13:15:35.530Z,4.75
2023-05-13T13:18:04.980Z,4.70
2023-05-13T13:20:32.868Z,6.95
2023-05-13T13:23:02.001Z,5.90
2023-05-13T13:25:29.997Z,4.82
2023-05-13T13:27:57.836Z,6.15
2023-05-13T13:30:26.537Z,9.30
2023-05-13T13:32:54.673Z,9.57
2023-05-13T13:35:24.106Z,6.18
2023-05-13T13:37:51.963Z,6.60
2023-05-13T13:40:19.925Z,7.10
2023-05-13T13:42:48.026Z,6.35
2023-05-13T13:45:16.925Z,7.13
2023-05-13T13:47:45.092Z,6.68
2023-05-13T13:50:13.077Z,4.85
2023-05-13T13:52:42.254Z,6.70
2023-05-13T13:55:12.628Z,5.20
2023-05-13T13:57:40.473Z,5.70
2023-05-13T14:00:09.739Z,4.53
2023-05-13T14:02:38.194Z,5.95
2023-05-13T14:05:07.010Z,5.57
2023-05-13T14:07:35.573Z,6.07
2023-05-13T14:10:05.553Z,6.97
2023-05-13T14:12:33.518Z,7.07
2023-05-13T14:15:01.402Z,5.25
2023-05-13T14:17:29.633Z,5.55
2023-05-13T14:19:57.435Z,5.18
2023-05-13T14:22:25.733Z,4.72
2023-05-13T14:24:54.072Z,4.38
2023-05-13T14:27:24.564Z,5.70
2023-05-13T14:29:52.999Z,6.32
2023-05-13T14:32:20.984Z,4.97
2023-05-13T14:34:48.862Z,7.30
2023-05-13T14:37:16.780Z,4.85
2023-05-13T14:39:45.025Z,4.65
2023-05-13T14:42:13.961Z,4.40
2023-05-13T14:44:43.204Z,5.85
2023-05-13T14:47:13.333Z,5.10
2023-05-13T14:49:41.756Z,5.40
2023-05-13T14:52:09.999Z,5.20
2023-05-13T14:54:38.417Z,4.13
2023-05-13T14:57:07.661Z,5.80
2023-05-13T14:59:35.827Z,4.70
2023-05-13T15:02:05.577Z,6.53
2023-05-13T15:04:33.418Z,4.40
2023-05-13T15:07:03.321Z,5.55
2023-05-13T15:09:31.144Z,6.63
2023-05-13T15:11:58.970Z,4.18
2023-05-13T15:14:26.962Z,5.53
2023-05-13T15:16:54.942Z,7.95
2023-05-13T15:19:24.431Z,4.70
2023-05-13T15:21:52.508Z,4.95
2023-05-13T15:24:22.557Z,6.47
2023-05-13T15:26:50.809Z,5.72
2023-05-13T15:29:18.822Z,5.57
2023-05-13T15:31:48.417Z,4.45
2023-05-13T15:34:17.480Z,4.82
2023-05-13T15:36:50.962Z,7.47
2023-05-13T15:39:19.177Z,4.68
2023-05-13T15:41:47.223Z,6.43
2023-05-13T15:44:15.312Z,5.47
2023-05-13T15:46:43.513Z,4.90
2023-05-13T15:49:11.462Z,9.93
2023-05-13T15:51:41.728Z,5.65
2023-05-13T15:54:11.160Z,3.55
2023-05-13T15:56:39.171Z,4.38
2023-05-13T15:59:07.102Z,3.63
2023-05-13T16:01:39.248Z,4.82
2023-05-13T16:06:39.904Z,4.60
2023-05-13T16:09:08.034Z,5.05
2023-05-13T16:11:37.632Z,4.82
2023-05-13T16:14:07.524Z,4.50
2023-05-13T16:16:38.989Z,4.93
2023-05-13T16:19:08.651Z,3.70
2023-05-13T16:21:41.278Z,4.15
2023-05-13T16:24:09.664Z,3.42
2023-05-13T16:26:38.887Z,3.85
2023-05-13T16:29:06.885Z,3.47
2023-05-13T16:31:36.526Z,3.50
2023-05-13T16:34:07.482Z,3.33
2023-05-13T16:36:38.172Z,3.80
2023-05-13T16:39:06.145Z,5.43
2023-05-13T16:41:35.633Z,3.53
2023-05-13T16:44:05.608Z,3.58
2023-05-13T16:46:35.697Z,7.00
2023-05-13T16:49:03.843Z,6.18
2023-05-13T16:51:32.241Z,5.25
2023-05-13T16:54:00.842Z,5.43
2023-05-13T16:56:28.980Z,3.72
2023-05-13T16:58:56.901Z,3.83
2023-05-13T17:01:26.701Z,6.07
2023-05-13T17:03:54.616Z,4.90
2023-05-13T17:06:23.112Z,4.53
2023-05-13T17:08:51.582Z,5.00
2023-05-13T17:11:19.587Z,4.20
2023-05-13T17:13:47.796Z,4.43
2023-05-13T17:16:15.811Z,5.25
2023-05-13T17:18:45.676Z,5.40
2023-05-13T17:21:13.812Z,4.20
2023-05-13T17:23:41.675Z,5.72
2023-05-13T17:26:11.572Z,9.85
2023-05-13T17:28:40.262Z,31.63
2023-05-13T17:31:08.898Z,29.13
2023-05-13T17:33:36.974Z,51.88
2023-05-13T17:36:07.377Z,12.50
2023-05-13T17:38:35.401Z,7.05
2023-05-13T17:41:03.320Z,6.32
2023-05-13T17:43:31.196Z,4.65
2023-05-13T17:45:59.225Z,4.88
2023-05-13T17:48:27.492Z,5.82
2023-05-13T17:51:05.456Z,6.65
2023-05-13T17:53:35.232Z,4.10
2023-05-13T17:56:03.223Z,4.78
2023-05-13T17:58:31.612Z,17.98
2023-05-13T18:00:59.799Z,4.93
2023-05-13T18:03:28.042Z,4.00
2023-05-13T18:05:56.363Z,4.30
2023-05-13T18:08:24.619Z,4.60
2023-05-13T18:10:54.089Z,3.88
2023-05-13T18:13:22.081Z,7.43
2023-05-13T18:15:50.150Z,4.85
2023-05-13T18:18:18.747Z,5.60
2023-05-13T18:20:47.175Z,3.67
2023-05-13T18:23:15.191Z,6.65
2023-05-13T18:25:52.471Z,4.55
2023-05-13T18:28:24.723Z,5.03
2023-05-13T18:30:53.010Z,5.35
2023-05-13T18:33:21.651Z,4.78
2023-05-13T18:35:49.837Z,6.40
2023-05-13T18:38:19.793Z,4.57
2023-05-13T18:40:47.727Z,5.22
2023-05-13T18:43:16.211Z,5.15
2023-05-13T18:45:45.817Z,4.95
2023-05-13T18:48:14.128Z,6.38
2023-05-13T18:50:42.259Z,6.28
2023-05-13T18:53:10.113Z,5.30
2023-05-13T18:55:38.330Z,6.05
2023-05-13T18:58:06.763Z,7.82
2023-05-13T19:00:34.703Z,6.40
2023-05-13T19:03:04.639Z,6.32
2023-05-13T19:05:33.080Z,7.35
2023-05-13T19:08:01.163Z,6.22
2023-05-13T19:10:29.024Z,7.03
2023-05-13T19:13:01.099Z,7.78
2023-05-13T19:15:29.097Z,8.20
2023-05-13T19:17:57.210Z,8.10
2023-05-13T19:20:27.069Z,6.43
2023-05-13T19:22:54.986Z,6.53
2023-05-13T19:25:22.982Z,8.43
2023-05-13T19:27:51.171Z,8.88
2023-05-13T19:30:19.181Z,9.02
2023-05-13T19:33:07.701Z,7.43
2023-05-13T19:35:37.072Z,8.63
2023-05-13T19:38:06.945Z,10.15
2023-05-13T19:40:35.040Z,7.05
2023-05-13T19:43:03.234Z,7.68
2023-05-13T19:45:31.401Z,9.73
2023-05-13T19:47:59.296Z,9.70
2023-05-13T19:50:27.232Z,7.70
2023-05-13T19:52:56.564Z,10.40
2023-05-13T19:55:24.594Z,8.80
2023-05-13T19:57:52.562Z,8.82
2023-05-13T20:00:23.233Z,8.95
2023-05-13T20:02:52.795Z,11.30
2023-05-13T20:05:20.805Z,10.55
2023-05-13T20:07:48.686Z,10.10
2023-05-13T20:10:20.827Z,10.15
2023-05-13T20:12:49.030Z,9.45
2023-05-13T20:15:18.569Z,11.50
2023-05-13T20:17:47.043Z,10.43
2023-05-13T20:20:17.400Z,10.95
2023-05-13T20:22:45.676Z,11.35
2023-05-13T20:25:13.804Z,11.30
2023-05-13T20:27:43.073Z,13.23
2023-05-13T20:30:12.116Z,11.52
2023-05-13T20:32:40.068Z,11.13
2023-05-13T20:35:09.003Z,11.18
2023-05-13T20:37:36.958Z,11.48
2023-05-13T20:40:05.606Z,14.88
2023-05-13T20:42:33.603Z,11.40
2023-05-13T20:45:02.807Z,12.27
2023-05-13T20:47:31.160Z,12.20
2023-05-13T20:49:58.971Z,12.38
2023-05-13T20:52:27.436Z,11.50
2023-05-13T20:54:55.181Z,12.73
2023-05-13T20:57:22.890Z,13.80
2023-05-13T20:59:51.760Z,10.90
2023-05-13T21:02:21.452Z,12.20
2023-05-13T21:04:49.342Z,12.13
2023-05-13T21:07:17.169Z,15.30
2023-05-13T21:09:45.038Z,11.73
2023-05-13T21:12:12.869Z,13.70
2023-05-13T21:14:41.228Z,12.52
2023-05-13T21:17:09.452Z,12.43
2023-05-13T21:19:38.638Z,13.32
2023-05-13T21:22:12.801Z,15.60
2023-05-13T21:27:28.172Z,12.88
2023-05-13T21:29:55.982Z,12.38
2023-05-13T21:32:23.868Z,12.68
2023-05-13T21:34:52.961Z,15.27
2023-05-13T21:37:20.807Z,12.27
2023-05-13T21:39:48.513Z,12.95
2023-05-13T21:42:16.231Z,12.70
2023-05-13T21:44:44.003Z,15.00
2023-05-13T21:47:11.859Z,12.35
2023-05-13T21:49:39.723Z,15.60
2023-05-13T21:52:09.099Z,16.23
2023-05-13T21:54:36.881Z,15.20
2023-05-13T21:57:05.301Z,13.57
2023-05-13T21:59:33.067Z,12.38
2023-05-13T22:02:00.937Z,13.35
2023-05-13T22:04:28.705Z,13.20
2023-05-13T22:06:56.494Z,12.20
2023-05-13T22:09:25.643Z,13.20
2023-05-13T22:11:53.389Z,13.10
2023-05-13T22:14:21.072Z,12.45
2023-05-13T22:17:00.874Z,13.27
2023-05-13T22:19:36.274Z,13.82
2023-05-13T22:22:04.125Z,13.35
2023-05-13T22:24:33.319Z,13.38
2023-05-13T22:27:01.267Z,14.10
2023-05-13T22:29:29.068Z,14.52
2023-05-13T22:31:57.751Z,13.18
2023-05-13T22:34:26.757Z,14.85
2023-05-13T22:36:54.705Z,13.32
2023-05-13T22:39:22.523Z,15.02
2023-05-13T22:41:51.625Z,16.98
2023-05-13T22:44:19.407Z,19.83
2023-05-13T22:46:47.244Z,16.98
2023-05-13T22:49:15.060Z,16.70
2023-05-13T22:51:43.087Z,15.38
2023-05-13T22:54:10.905Z,16.05
2023-05-13T22:56:38.645Z,17.88
2023-05-13T22:59:07.802Z,16.33
2023-05-13T23:01:37.913Z,18.23
2023-05-13T23:04:06.525Z,18.38
2023-05-13T23:06:34.288Z,17.77
2023-05-13T23:09:03.484Z,18.77
2023-05-13T23:11:33.849Z,18.98
2023-05-13T23:14:01.606Z,18.40
2023-05-13T23:16:30.754Z,19.45
2023-05-13T23:18:58.562Z,18.17
2023-05-13T23:21:26.388Z,17.05
2023-05-13T23:23:54.152Z,17.23
2023-05-13T23:26:22.028Z,16.92
2023-05-13T23:28:49.744Z,19.38
2023-05-13T23:31:17.728Z,18.02
2023-05-13T23:33:46.834Z,14.40
2023-05-13T23:36:16.066Z,15.07
2023-05-13T23:38:44.061Z,15.75
2023-05-13T23:41:11.847Z,15.18
2023-05-13T23:43:39.557Z,14.18
2023-05-13T23:46:07.398Z,15.07
2023-05-13T23:48:35.320Z,18.45
2023-05-13T23:51:04.775Z,15.63
2023-05-13T23:53:32.726Z,17.98
2023-05-13T23:56:00.503Z,18.33
2023-05-13T23:58:28.287Z,17.48
